• Join FlightAware (Why Join?)
  • Login
  • US Flag 
06:54AM EST


 

Airport Tracker/Info


-or-


 

Live Flight TrackerFlight Track Log ✈ DAL3780 ✈ 05-Sep-2013 ✈ KBMI - KMSP

Flight Track Log - Related Links

Times and Time Zones

All times are in EDT time to prevent confusion due to time zone crossing. See the DAL3780 flight status page for this flight to view local times or setup timezone preferences in your user account.

Time Position Orientation Groundspeed Altitude Reporting Facility
EDT Latitude Longitude Course Direction KTS MPH feet Rate Location/Type
06:04PM 40.5831 -89.0006 318° Northwest 225 259 5,500  Level Chicago Center
06:05PM 40.6358 -89.0694 315° West 256 295 7,700 2,100 Climbing Chicago Center
06:06PM 40.6914 -89.1397 316° Northwest 272 313 9,900 2,160 Climbing Chicago Center
06:07PM 40.7650 -89.2322 316° Northwest 298 343 12,200 1,980 Climbing Chicago Center
06:08PM 40.8968 -89.4392 308° West  Level FlightAware Approximate
06:08PM 40.8264 -89.3125 315° West 309 356 14,100  Level Chicago Center
06:09PM 40.8883 -89.3933 315° West 314 361 15,900 1,500 Climbing Chicago Center
06:10PM 40.9503 -89.4789 314° West 322 371 17,200 1,020 Climbing Chicago Center
06:11PM 41.0167 -89.5636 316° Northwest 332 382 18,100 900 Climbing Chicago Center
06:12PM 41.1022 -89.6717 316° Northwest 355 409 19,100 720 Climbing Chicago Center
06:13PM 41.1764 -89.7703 315° West 376 433 19,700 540 Climbing Chicago Center
06:14PM 41.2536 -89.8711 316° Northwest 388 447 20,300 540 Climbing Chicago Center
06:15PM 41.3325 -89.9750 315° West 398 458 20,900 600 Climbing Chicago Center
06:16PM 41.4111 -90.0781 316° Northwest 398 458 21,600 720 Climbing Chicago Center
06:17PM 41.5042 -90.2036 315° West 398 458 22,500 720 Climbing Chicago Center
06:18PM 41.5800 -90.3108 313° West 400 460 23,200 660 Climbing Chicago Center
06:19PM 41.6586 -90.4133 316° Northwest 397 457 23,900 660 Climbing Chicago Center
06:20PM 41.7303 -90.5217 312° West 392 451 24,600 600 Climbing Chicago Center
06:21PM 41.7869 -90.6558 300° West 398 458 25,200 540 Climbing Chicago Center
06:22PM 41.8433 -90.7803 301° West 396 456 25,800 360 Climbing Chicago Center
06:23PM 41.9014 -90.9056 302° West 398 458 26,000 60 Climbing Chicago Center
06:24PM 41.9722 -91.0633 301° West 412 474 26,000  Level Chicago Center
06:25PM 42.0325 -91.1967 301° West 421 484 26,000  Level Chicago Center
06:26PM 42.0928 -91.3325 301° West 424 488 26,000  Level Chicago Center
06:28PM 42.1536 -91.4689 301° West 425 489 26,000  Level Chicago Center
06:29PM 42.2142 -91.6078 301° West 429 494 26,000  Level Chicago Center
06:30PM 42.2881 -91.7753 301° West 433 498 26,000  Level Chicago Center
06:31PM 42.3500 -91.9142 301° West 433 498 26,000  Level Chicago Center
06:32PM 42.4500 -92.0031 327° Northwest 431 496 26,000  Level Chicago Center
06:33PM 42.5539 -92.0842 330° Northwest 430 495 26,000  Level Chicago Center
06:34PM 42.6583 -92.1694 329° Northwest 435 501 26,000  Level Chicago Center
06:35PM 42.7617 -92.2525 329° Northwest 433 498 26,000  Level Chicago Center
06:36PM 42.8861 -92.3536 329° Northwest 434 499 26,000 -60 Level Chicago Center
06:38PM 43.0936 -92.5217 329° Northwest 434 499 25,900 -240 Descending Chicago Center
06:39PM 43.1969 -92.6078 329° Northwest 438 504 25,400 -540 Descending Minneapolis Center
06:40PM 43.3061 -92.6953 330° Northwest 452 520 24,900 -540 Descending Minneapolis Center
06:41PM 43.4136 -92.7833 329° Northwest 453 521 24,400 -480 Descending Minneapolis Center
06:42PM 43.5439 -92.8900 329° Northwest 458 527 24,000 -420 Descending Minneapolis Center
06:43PM 43.6494 -92.9831 327° Northwest 457 526 23,600 -1,440 Descending Minneapolis Center
06:44PM 43.7503 -93.0689 328° Northwest 442 509 21,000 -2,520 Descending Minneapolis Center
06:45PM 43.8486 -93.1467 330° Northwest 411 473 18,400 -2,460 Descending Minneapolis Center
06:46PM 43.9397 -93.2233 329° Northwest 390 449 16,000 -2,400 Descending Minneapolis Center
06:47PM 44.0414 -93.2397 353° North 390 449 13,500 -2,520 Descending Minneapolis Center
06:48PM 44.1658 -93.2269 North 378 435 10,900 -1,740 Descending Minneapolis Center
06:49PM 44.2711 -93.2167 North 382 440 10,000 -480 Descending Minneapolis Center
06:50PM 44.3594 -93.2081 North 320 368 10,000 -60 Level Minneapolis Center
06:51PM 44.4486 -93.1986 North 322 371 9,900 -540 Descending Minneapolis Center
06:52PM 44.5258 -93.1908 North 279 321 9,000 -480 Descending Minneapolis Center
06:53PM 44.6208 -93.1831 North 285 328 9,000 -300 Level Minneapolis Center
06:54PM 44.6947 -93.2219 339° North 281 323 8,500 -540 Descending Minneapolis Center
06:55PM 44.7656 -93.2661 336° Northwest 263 303 8,000 -240 Descending Minneapolis Center
06:56PM 44.8189 -93.3089 330° Northwest 227 261 8,000  Level Minneapolis Center
06:57PM 44.8467 -93.3828 298° West 216 249 8,000  Level Minneapolis Center
06:59PM 44.8736 -93.4572 297° West 214 246 8,000 -540 Level Minneapolis Center
07:00PM 44.8944 -93.5325 291° West 209 241 7,000 -1,020 Descending Minneapolis Center
07:02PM 44.9514 -93.5369 357° North 204 235 4,900 -1,020 Descending Minneapolis Center
07:03PM 44.9567 -93.4633 84° East 191 220 3,900 -900 Descending Minneapolis Center
07:04PM 44.9533 -93.3925 94° East 181 208 3,100 -660 Descending Minneapolis Center
07:05PM 44.9306 -93.3336 119° Southeast 171 197 2,600 -720 Descending Minneapolis Center
07:06PM 44.9089 -93.2822 121° Southeast 153 176 1,700 -900 Descending Minneapolis Center
07:08PM 44.8820 -93.2218 50° Northeast  Level Estimated
07:15PM 44.8820 -93.2218 50° Northeast  Level Estimated